Time;durP1;ratioP1;P1;durP2;ratioP2;P2;SDS_P1;SDS_P2;PMS_P1;PMS_P2;Temp;Humidity;BMP_temperature;BMP_pressure;BME280_temperature;BME280_humidity;BME280_pressure;Samples;Min_cycle;Max_cycle;Signal;HPM_P1;HPM_P2
2023/03/30 00:00:32;;;;;;;3.00;1.60;;;;;;;4.31;36.33;99701.41;6160676;23;20154;-92
2023/03/30 00:03:01;;;;;;;3.10;1.30;;;;;;;4.32;36.71;99700.50;6186413;23;20175;-92
2023/03/30 00:05:27;;;;;;;2.87;1.47;;;;;;;4.32;36.91;99700.50;6160652;23;20233;-92
2023/03/30 00:07:53;;;;;;;2.60;1.37;;;;;;;4.45;36.86;99700.28;6186579;23;20230;-92
2023/03/30 00:10:18;;;;;;;11.60;1.50;;;;;;;4.51;37.76;99701.00;6167417;23;20197;-91
2023/03/30 00:12:51;;;;;;;5.70;1.67;;;;;;;4.46;37.21;99694.19;6186744;23;20150;-92
2023/03/30 00:15:20;;;;;;;2.30;1.00;;;;;;;4.50;37.04;99690.66;6185430;23;20151;-92
2023/03/30 00:17:46;;;;;;;5.30;1.80;;;;;;;4.49;37.54;99696.72;6185210;23;20155;-92
2023/03/30 00:20:13;;;;;;;5.00;1.77;;;;;;;4.56;38.06;99688.78;6185198;23;20158;-92
2023/03/30 00:22:43;;;;;;;4.47;1.73;;;;;;;4.66;36.51;99685.16;6186513;23;20202;-92
2023/03/30 00:25:14;;;;;;;3.03;1.40;;;;;;;4.69;36.07;99684.25;6185240;23;20499;-91
2023/03/30 00:27:40;;;;;;;3.83;1.97;;;;;;;4.65;36.68;99669.59;6186639;23;20147;-92
2023/03/30 00:30:10;;;;;;;4.87;1.60;;;;;;;4.55;37.18;99681.06;6185209;23;20224;-92
2023/03/30 00:32:35;;;;;;;5.50;1.90;;;;;;;4.54;36.10;99680.19;6184960;23;20186;-92
2023/03/30 00:35:01;;;;;;;3.30;1.20;;;;;;;4.53;35.97;99682.84;6186128;23;20158;-91
2023/03/30 00:37:27;;;;;;;3.10;1.43;;;;;;;4.62;35.18;99670.50;6186141;23;20157;-92
2023/03/30 00:39:53;;;;;;;3.60;1.13;;;;;;;4.53;35.30;99675.91;6185045;23;20169;-92
2023/03/30 00:42:20;;;;;;;3.87;1.03;;;;;;;4.55;35.44;99679.31;6184908;23;20178;-91
2023/03/30 00:45:09;;;;;;;3.30;1.33;;;;;;;4.34;36.78;99682.31;6184961;23;20661;-92
2023/03/30 00:47:42;;;;;;;2.63;1.13;;;;;;;4.40;36.71;99686.53;6186370;23;20157;-91
2023/03/30 00:50:09;;;;;;;4.70;1.10;;;;;;;4.47;36.43;99676.00;6186582;23;20140;-91
2023/03/30 00:52:37;;;;;;;3.10;1.20;;;;;;;4.36;36.11;99680.56;6185283;23;20146;-92
2023/03/30 00:55:06;;;;;;;3.03;0.93;;;;;;;4.39;36.25;99684.81;6186077;23;20315;-92
2023/03/30 00:57:36;;;;;;;2.20;1.47;;;;;;;4.46;36.36;99676.03;6184958;23;20163;-92
2023/03/30 01:00:07;;;;;;;2.30;0.90;;;;;;;4.52;35.54;99681.09;6184949;23;20631;-92
2023/03/30 01:02:38;;;;;;;2.73;1.10;;;;;;;4.45;35.64;99671.75;6184885;23;20562;-92
2023/03/30 01:05:05;;;;;;;2.13;0.87;;;;;;;4.49;35.92;99663.00;6186517;23;20136;-92
2023/03/30 01:07:31;;;;;;;3.33;1.27;;;;;;;4.52;36.90;99675.91;6185198;23;20470;-91
2023/03/30 01:09:58;;;;;;;2.80;0.93;;;;;;;4.56;36.22;99675.00;6184704;23;20182;-92
2023/03/30 01:12:24;;;;;;;2.27;1.10;;;;;;;4.55;35.84;99668.06;6184645;23;20146;-92
2023/03/30 01:14:50;;;;;;;1.37;0.80;;;;;;;4.55;36.25;99675.84;6186038;23;20146;-91
2023/03/30 01:17:28;;;;;;;1.37;0.90;;;;;;;4.51;35.99;99684.59;6185902;23;20151;-91
2023/03/30 01:20:01;;;;;;;4.80;0.80;;;;;;;4.57;35.82;99676.69;6185953;23;20205;-91
2023/03/30 01:22:46;;;;;;;4.70;1.17;;;;;;;4.41;36.69;99678.72;6184688;23;20178;-92
2023/03/30 01:25:17;;;;;;;2.00;0.83;;;;;;;4.34;37.33;99675.41;6186197;23;20135;-91
2023/03/30 01:27:57;;;;;;;1.60;0.80;;;;;;;4.22;37.38;99683.38;6184810;23;20194;-92
2023/03/30 01:30:41;;;;;;;1.17;0.80;;;;;;;4.19;38.03;99683.44;6184625;23;20169;-92
2023/03/30 01:33:33;;;;;;;3.90;1.20;;;;;;;3.98;37.94;99688.19;6184831;23;20201;-92
2023/03/30 01:36:20;;;;;;;1.60;0.90;;;;;;;4.04;38.05;99688.06;6184941;23;20152;-92
2023/03/30 01:38:54;;;;;;;2.23;0.93;;;;;;;4.14;37.68;99687.88;6186263;23;20134;-91
2023/03/30 01:41:41;;;;;;;2.20;1.10;;;;;;;4.37;36.97;99689.19;6184592;23;20158;-91
2023/03/30 01:44:18;;;;;;;3.23;1.10;;;;;;;4.29;37.33;99690.19;6184660;23;20497;-91
2023/03/30 01:46:50;;;;;;;2.43;0.90;;;;;;;4.16;38.25;99693.03;6184630;23;20158;-91
2023/03/30 01:49:53;;;;;;;2.33;1.30;;;;;;;4.02;38.92;99701.06;6187445;23;20158;-92
2023/03/30 01:52:27;;;;;;;2.40;1.03;;;;;;;4.09;38.33;99697.47;6186617;23;20149;-92
2023/03/30 01:55:03;;;;;;;2.77;0.87;;;;;;;3.96;39.57;99695.97;6187749;23;20192;-92
2023/03/30 01:57:39;;;;;;;3.20;1.20;;;;;;;3.88;38.60;99703.03;6186832;23;20142;-91
2023/03/30 02:00:13;;;;;;;1.77;0.80;;;;;;;3.90;39.18;99700.41;6186528;23;20146;-92
2023/03/30 02:02:47;;;;;;;3.27;1.37;;;;;;;3.88;38.98;99697.84;6186582;23;20182;-92
2023/03/30 02:05:16;;;;;;;1.43;0.93;;;;;;;3.86;40.18;99694.41;6188133;23;20138;-92
2023/03/30 02:07:48;;;;;;;0.90;0.47;;;;;;;3.91;39.73;99697.78;6188026;23;20148;-92
2023/03/30 02:10:17;;;;;;;0.97;0.60;;;;;;;3.81;40.47;99709.19;6187741;23;20162;-92
2023/03/30 02:12:45;;;;;;;1.67;0.80;;;;;;;3.91;39.55;99699.50;6187585;23;20150;-92
2023/03/30 02:15:14;;;;;;;1.30;0.73;;;;;;;3.77;40.80;99699.78;6187481;23;20161;-91
2023/03/30 02:17:41;;;;;;;2.47;1.13;;;;;;;3.89;40.11;99703.88;6161613;23;20150;-92
2023/03/30 02:20:11;;;;;;;2.50;1.20;;;;;;;4.04;39.84;99699.28;6161834;23;20169;-92
2023/03/30 02:22:37;;;;;;;2.60;1.10;;;;;;;4.12;40.01;99710.38;6161550;23;20180;-92
2023/03/30 02:25:04;;;;;;;30.70;10.60;;;;;;;4.09;39.83;99706.97;6161353;23;20574;-92
2023/03/30 02:27:32;;;;;;;30.27;11.77;;;;;;;4.03;39.08;99702.78;6161501;23;20586;-92
2023/03/30 02:29:58;;;;;;;28.17;10.87;;;;;;;4.00;39.77;99713.22;6161564;23;20240;-92
2023/03/30 02:32:27;;;;;;;31.83;11.77;;;;;;;4.00;39.94;99718.41;6161503;23;20182;-92
2023/03/30 02:34:52;;;;;;;26.77;9.60;;;;;;;4.01;40.06;99714.91;6161828;23;20575;-92
2023/03/30 02:37:18;;;;;;;27.37;10.30;;;;;;;4.01;40.71;99711.47;6161624;23;20164;-92
2023/03/30 02:39:53;;;;;;;20.37;8.40;;;;;;;3.98;40.28;99709.78;6187349;23;20484;-92
2023/03/30 02:42:40;;;;;;;13.53;6.23;;;;;;;3.88;40.00;99720.34;6161454;23;20252;-91
2023/03/30 02:45:30;;;;;;;20.03;8.37;;;;;;;3.84;40.80;99716.06;6187596;23;20157;-92
2023/03/30 02:48:30;;;;;;;20.87;8.13;;;;;;;3.79;40.42;99723.94;6162376;23;20435;-92
2023/03/30 02:51:05;;;;;;;17.97;6.73;;;;;;;3.85;39.81;99723.84;6187310;23;20145;-92
2023/03/30 02:53:52;;;;;;;19.60;7.93;;;;;;;3.86;40.45;99722.94;6161429;23;20150;-91
2023/03/30 02:56:20;;;;;;;21.83;6.67;;;;;;;3.85;39.79;99725.56;6161418;23;20146;-91
2023/03/30 02:58:59;;;;;;;18.07;7.43;;;;;;;3.71;40.19;99721.47;6161245;23;20154;-92
2023/03/30 03:01:57;;;;;;;15.60;5.60;;;;;;;3.60;41.15;99720.75;6161249;23;20150;-92
2023/03/30 03:04:24;;;;;;;8.80;3.97;;;;;;;3.56;41.37;99729.44;6160235;23;20253;-92
2023/03/30 03:06:51;;;;;;;9.70;4.43;;;;;;;3.34;41.75;99724.63;6187052;23;20151;-91
2023/03/30 03:09:18;;;;;;;15.87;4.73;;;;;;;3.19;41.90;99735.19;6161137;23;20151;-91
2023/03/30 03:11:44;;;;;;;4.57;2.00;;;;;;;3.14;41.77;99731.81;6186906;23;20273;-91
2023/03/30 03:14:10;;;;;;;6.13;2.30;;;;;;;3.23;41.74;99737.72;6187269;23;20146;-91
2023/03/30 03:16:36;;;;;;;10.77;3.43;;;;;;;3.32;41.85;99739.31;6186878;23;20230;-91
2023/03/30 03:19:02;;;;;;;4.87;2.00;;;;;;;3.30;42.31;99738.50;6161140;23;20185;-91
2023/03/30 03:21:27;;;;;;;3.73;1.60;;;;;;;3.33;41.94;99746.25;6160976;23;20539;-92
2023/03/30 03:23:53;;;;;;;3.37;1.30;;;;;;;3.37;41.63;99743.56;6187027;23;20225;-91
2023/03/30 03:26:19;;;;;;;6.73;2.17;;;;;;;3.42;41.74;99736.59;6160937;23;20240;-92
2023/03/30 03:28:44;;;;;;;2.67;1.30;;;;;;;3.45;42.00;99736.56;6160783;23;20162;-91
2023/03/30 03:31:11;;;;;;;3.57;1.97;;;;;;;3.42;42.20;99736.59;6186751;23;20147;-91
2023/03/30 03:33:36;;;;;;;3.23;1.30;;;;;;;3.42;42.34;99738.31;6187170;23;20146;-91
2023/03/30 03:36:03;;;;;;;4.53;1.43;;;;;;;3.42;42.28;99743.50;6160611;23;20559;-91
2023/03/30 03:38:28;;;;;;;6.13;1.63;;;;;;;3.36;43.17;99748.75;6160777;23;20178;-93
2023/03/30 03:40:56;;;;;;;4.73;2.30;;;;;;;3.37;43.50;99750.47;6187425;23;20146;-93
2023/03/30 03:43:22;;;;;;;8.73;4.00;;;;;;;3.36;43.97;99753.94;6160635;23;20480;-93
2023/03/30 03:45:49;;;;;;;6.90;3.03;;;;;;;3.32;43.19;99747.09;6186525;23;20626;-93
2023/03/30 03:48:16;;;;;;;12.23;4.87;;;;;;;3.32;43.03;99747.97;6160732;23;20595;-93
2023/03/30 03:50:43;;;;;;;14.90;4.20;;;;;;;3.23;43.03;99752.38;6186538;23;20150;-93
2023/03/30 03:53:10;;;;;;;6.10;2.77;;;;;;;3.12;42.78;99754.28;6186502;23;20149;-93
2023/03/30 03:55:35;;;;;;;6.10;2.67;;;;;;;3.16;42.74;99761.13;6160703;23;20151;-93
2023/03/30 03:58:02;;;;;;;17.57;5.30;;;;;;;3.18;43.02;99751.59;6160725;23;20154;-93
2023/03/30 04:00:28;;;;;;;17.00;5.57;;;;;;;3.14;42.88;99758.56;6160916;23;20612;-93
2023/03/30 04:02:53;;;;;;;10.47;2.63;;;;;;;3.13;43.41;99759.44;6160486;23;20257;-93
2023/03/30 04:05:19;;;;;;;4.87;2.23;;;;;;;3.16;42.83;99762.00;6161510;23;20229;-93
2023/03/30 04:07:47;;;;;;;7.07;1.90;;;;;;;3.18;42.90;99756.78;6161459;23;20180;-94
2023/03/30 04:10:13;;;;;;;3.40;1.60;;;;;;;3.27;42.73;99759.25;6165642;23;20268;-93
2023/03/30 04:12:38;;;;;;;8.93;1.97;;;;;;;3.24;43.03;99764.47;6185274;23;20146;-93
2023/03/30 04:15:05;;;;;;;3.33;1.33;;;;;;;3.16;43.35;99766.31;6185302;23;20538;-93
2023/03/30 04:17:32;;;;;;;6.57;1.60;;;;;;;3.18;43.28;99769.72;6186886;23;20575;-94
2023/03/30 04:20:03;;;;;;;5.67;1.80;;;;;;;3.17;43.77;99768.03;6186505;23;20146;-93
2023/03/30 04:22:29;;;;;;;4.87;2.10;;;;;;;3.14;43.73;99771.53;6185127;23;20199;-93
2023/03/30 04:24:55;;;;;;;23.43;6.87;;;;;;;3.14;43.75;99774.13;6185709;23;20516;-93
2023/03/30 04:27:24;;;;;;;10.93;3.97;;;;;;;3.18;43.99;99775.78;6185117;23;20181;-93
2023/03/30 04:29:51;;;;;;;10.47;2.80;;;;;;;3.20;44.87;99773.19;6172999;23;20154;-93
2023/03/30 04:32:19;;;;;;;6.03;2.43;;;;;;;3.22;44.39;99774.00;6186339;23;20150;-93
2023/03/30 04:34:45;;;;;;;8.37;3.00;;;;;;;3.22;44.51;99776.59;6185097;23;20159;-93
2023/03/30 04:37:16;;;;;;;7.83;2.93;;;;;;;3.23;44.71;99775.69;6185842;23;20146;-93
2023/03/30 04:39:43;;;;;;;17.77;5.00;;;;;;;3.24;44.80;99785.19;6186612;23;20135;-93
2023/03/30 04:42:12;;;;;;;10.57;6.00;;;;;;;3.23;44.53;99794.69;6185313;23;20185;-93
2023/03/30 04:44:41;;;;;;;10.63;3.67;;;;;;;3.25;44.61;99797.28;6185139;23;20169;-93
2023/03/30 04:47:06;;;;;;;7.70;3.33;;;;;;;3.23;44.06;99805.06;6185072;23;20605;-93
2023/03/30 04:49:32;;;;;;;6.07;2.93;;;;;;;3.26;44.49;99804.16;6186064;23;20174;-94
2023/03/30 04:51:57;;;;;;;10.77;4.87;;;;;;;3.29;43.97;99811.91;6186076;23;20142;-94
2023/03/30 04:54:23;;;;;;;14.03;5.73;;;;;;;3.30;44.00;99811.03;6186759;23;20157;-93
2023/03/30 04:56:48;;;;;;;16.83;8.00;;;;;;;3.33;44.13;99817.03;6184816;23;20150;-93
2023/03/30 04:59:14;;;;;;;19.73;7.00;;;;;;;3.44;43.83;99819.47;6186632;23;20150;-93
2023/03/30 05:01:40;;;;;;;17.40;6.87;;;;;;;3.70;43.44;99825.16;6184798;23;20158;-93
2023/03/30 05:04:06;;;;;;;14.23;6.47;;;;;;;3.71;42.99;99825.16;6184923;23;20216;-93
2023/03/30 05:06:31;;;;;;;12.50;4.80;;;;;;;3.76;43.34;99822.50;6186128;23;20471;-93
2023/03/30 05:08:57;;;;;;;12.77;4.80;;;;;;;3.84;42.97;99822.38;6185457;23;20178;-93
2023/03/30 05:11:22;;;;;;;6.83;3.30;;;;;;;3.88;42.70;99822.31;6185225;23;20178;-92
2023/03/30 05:13:53;;;;;;;11.20;3.23;;;;;;;3.88;42.97;99821.47;6185877;23;20154;-93
2023/03/30 05:16:19;;;;;;;8.20;3.27;;;;;;;3.92;42.78;99816.22;6184773;23;20150;-93
2023/03/30 05:18:44;;;;;;;7.87;3.40;;;;;;;4.06;43.80;99822.03;6186086;23;20471;-93
2023/03/30 05:21:10;;;;;;;11.53;3.57;;;;;;;4.44;43.79;99824.00;6185052;23;20578;-92
2023/03/30 05:23:38;;;;;;;13.50;3.97;;;;;;;5.14;43.56;99820.09;6184234;23;20178;-93
2023/03/30 05:26:05;;;;;;;7.87;3.63;;;;;;;6.07;40.96;99812.03;6185395;23;20228;-94
2023/03/30 05:28:31;;;;;;;6.87;3.73;;;;;;;6.89;40.64;99816.03;6184357;23;20166;-93
2023/03/30 05:30:57;;;;;;;7.77;3.27;;;;;;;7.58;40.42;99805.34;6185575;23;20570;-93
2023/03/30 05:33:23;;;;;;;7.57;3.40;;;;;;;8.10;39.77;99804.56;6184697;23;20188;-93
2023/03/30 05:35:48;;;;;;;11.43;4.50;;;;;;;8.46;39.34;99807.81;6184921;23;20213;-93
2023/03/30 05:38:14;;;;;;;10.10;4.23;;;;;;;8.72;39.05;99805.16;6184488;23;20159;-93
2023/03/30 05:40:39;;;;;;;9.67;4.00;;;;;;;9.01;37.98;99802.38;6184590;23;20236;-92
2023/03/30 05:43:05;;;;;;;8.87;3.90;;;;;;;9.61;37.12;99801.03;6184376;23;20206;-91
2023/03/30 05:45:30;;;;;;;9.47;3.53;;;;;;;10.70;35.16;99788.75;6185704;23;20563;-92
2023/03/30 05:47:56;;;;;;;7.07;2.67;;;;;;;11.71;33.03;99792.91;6185830;23;20569;-92
2023/03/30 05:50:22;;;;;;;6.43;3.07;;;;;;;12.45;32.10;99785.81;6184390;23;20191;-92
2023/03/30 05:52:48;;;;;;;21.10;6.33;;;;;;;12.80;31.58;99790.16;6185363;23;20646;-92
2023/03/30 05:55:14;;;;;;;17.10;6.47;;;;;;;13.49;31.06;99779.50;6184671;23;20186;-92
2023/03/30 05:57:40;;;;;;;13.53;5.37;;;;;;;14.82;29.40;99776.28;6184906;23;20489;-91
2023/03/30 06:00:06;;;;;;;23.83;7.93;;;;;;;16.92;27.26;99775.94;6185221;23;20489;-90
2023/03/30 06:02:32;;;;;;;9.47;4.17;;;;;;;18.99;24.71;99758.94;6185582;23;20177;-90
2023/03/30 06:04:57;;;;;;;15.20;4.60;;;;;;;20.86;22.84;99755.19;6185358;23;20182;-90
2023/03/30 06:07:23;;;;;;;12.03;5.70;;;;;;;22.36;21.33;99758.72;6184436;23;20185;-88
2023/03/30 06:09:49;;;;;;;14.23;6.07;;;;;;;23.43;20.72;99766.50;6185942;23;20224;-89
2023/03/30 06:12:14;;;;;;;17.67;7.57;;;;;;;24.20;19.83;99766.97;6185540;23;20138;-88
2023/03/30 06:14:40;;;;;;;13.53;6.30;;;;;;;24.83;19.44;99773.09;6159638;23;20225;-88
2023/03/30 06:17:06;;;;;;;15.80;6.67;;;;;;;25.07;18.19;99772.44;6159268;23;20159;-88
2023/03/30 06:19:31;;;;;;;6.83;3.03;;;;;;;25.45;18.18;99771.16;6159237;23;20161;-89
2023/03/30 06:21:57;;;;;;;3.83;1.60;;;;;;;24.78;16.26;99780.78;6185442;23;20174;-89
2023/03/30 06:24:23;;;;;;;2.60;1.30;;;;;;;24.75;16.29;99781.06;6185611;23;20266;-89
2023/03/30 06:26:48;;;;;;;3.23;1.40;;;;;;;24.62;16.84;99796.69;6159158;23;20157;-89
2023/03/30 06:29:14;;;;;;;2.80;1.33;;;;;;;24.42;16.09;99795.16;6159531;23;20151;-89
2023/03/30 06:31:40;;;;;;;3.90;1.70;;;;;;;24.79;16.21;99795.03;6159466;23;20158;-89
2023/03/30 06:34:05;;;;;;;4.87;1.73;;;;;;;24.71;17.16;99801.09;6160463;23;20493;-89
2023/03/30 06:36:30;;;;;;;3.97;1.53;;;;;;;24.01;16.22;99807.22;6161371;23;20158;-88
2023/03/30 06:38:56;;;;;;;4.27;1.60;;;;;;;23.48;15.79;99803.53;6161342;23;20164;-89
2023/03/30 06:41:21;;;;;;;3.10;1.50;;;;;;;22.88;15.04;99802.06;6161328;23;20151;-89
2023/03/30 06:43:47;;;;;;;3.97;1.60;;;;;;;23.00;16.19;99807.13;6161189;23;20179;-89
2023/03/30 06:46:13;;;;;;;4.67;1.90;;;;;;;22.33;15.44;99809.75;6160881;23;20167;-88
2023/03/30 06:48:39;;;;;;;2.57;1.57;;;;;;;21.52;16.81;99817.06;6161163;23;20179;-89
2023/03/30 06:51:05;;;;;;;4.67;2.13;;;;;;;21.83;17.27;99816.06;6160798;23;20157;-90
2023/03/30 06:53:31;;;;;;;3.67;1.77;;;;;;;21.09;17.18;99831.44;6160880;23;20150;-90
2023/03/30 06:55:58;;;;;;;4.13;1.73;;;;;;;21.08;18.32;99824.41;6160903;23;20493;-90
2023/03/30 06:58:26;;;;;;;3.60;1.83;;;;;;;21.02;18.04;99832.88;6160817;23;20602;-90
2023/03/30 07:00:51;;;;;;;6.87;1.87;;;;;;;20.70;18.83;99826.75;6160803;23;20217;-90
2023/03/30 07:03:20;;;;;;;7.10;1.57;;;;;;;20.90;18.33;99827.72;6160651;23;20178;-89
2023/03/30 07:05:50;;;;;;;4.67;2.30;;;;;;;21.11;17.68;99825.97;6160612;23;20457;-89
2023/03/30 07:08:17;;;;;;;4.50;1.63;;;;;;;20.27;17.33;99829.44;6160704;23;20182;-89
2023/03/30 07:10:42;;;;;;;3.80;1.80;;;;;;;20.16;18.38;99832.94;6186859;23;20162;-89
2023/03/30 07:13:08;;;;;;;4.33;1.70;;;;;;;20.04;19.33;99839.25;6160645;23;20177;-90
2023/03/30 07:15:34;;;;;;;5.23;2.60;;;;;;;20.04;18.35;99825.09;6186671;23;20226;-89
2023/03/30 07:18:00;;;;;;;8.03;2.20;;;;;;;19.96;19.17;99839.03;6186743;23;20174;-90
2023/03/30 07:20:26;;;;;;;3.77;1.67;;;;;;;19.60;20.35;99841.94;6160484;23;20155;-90
2023/03/30 07:22:51;;;;;;;4.03;1.60;;;;;;;19.45;19.31;99840.44;6160474;23;20174;-89
2023/03/30 07:25:17;;;;;;;4.20;1.70;;;;;;;19.31;20.37;99840.66;6186477;23;20154;-89
2023/03/30 07:27:42;;;;;;;13.10;1.93;;;;;;;18.90;19.84;99846.44;6186446;23;20147;-89
2023/03/30 07:30:09;;;;;;;5.17;2.10;;;;;;;18.77;20.24;99841.22;6186847;23;20158;-90
2023/03/30 07:32:35;;;;;;;7.63;1.77;;;;;;;18.85;21.29;99836.19;6160560;23;20224;-89
2023/03/30 07:35:00;;;;;;;7.20;1.70;;;;;;;18.55;21.09;99846.47;6160382;23;20229;-90
2023/03/30 07:37:27;;;;;;;11.83;2.20;;;;;;;17.95;21.40;99842.91;6186353;23;20157;-89
2023/03/30 07:39:53;;;;;;;8.60;1.73;;;;;;;18.04;21.66;99839.59;6186294;23;20537;-89
2023/03/30 07:42:19;;;;;;;4.17;1.73;;;;;;;18.09;21.31;99842.75;6160185;23;20244;-89
2023/03/30 07:44:44;;;;;;;5.83;2.60;;;;;;;18.20;20.97;99842.84;6160214;23;20158;-89
2023/03/30 07:47:10;;;;;;;3.63;1.77;;;;;;;18.35;20.52;99839.91;6185927;23;20151;-89
2023/03/30 07:49:36;;;;;;;5.63;2.33;;;;;;;18.00;21.77;99841.63;6160309;23;20492;-89
2023/03/30 07:52:01;;;;;;;4.90;2.00;;;;;;;18.06;21.37;99835.00;6186704;23;20478;-89
2023/03/30 07:54:27;;;;;;;4.50;1.93;;;;;;;18.14;22.38;99833.50;6187216;23;20157;-89
2023/03/30 07:56:52;;;;;;;4.87;1.70;;;;;;;18.17;21.97;99835.94;6186265;23;20191;-89
2023/03/30 07:59:19;;;;;;;5.17;1.60;;;;;;;18.30;21.97;99828.78;6186301;23;20572;-89
2023/03/30 08:01:45;;;;;;;5.97;1.90;;;;;;;18.51;22.67;99831.69;6160369;23;20160;-89
2023/03/30 08:04:12;;;;;;;4.00;1.90;;;;;;;18.60;20.64;99828.38;6186212;23;20226;-90
2023/03/30 08:06:37;;;;;;;5.73;2.17;;;;;;;18.14;20.57;99824.69;6186250;23;20148;-90
2023/03/30 08:09:03;;;;;;;4.80;2.20;;;;;;;17.66;21.68;99829.91;6160002;23;20169;-89
2023/03/30 08:11:29;;;;;;;5.00;1.83;;;;;;;17.98;22.34;99819.66;6181193;23;20166;-89
2023/03/30 08:13:54;;;;;;;4.83;1.73;;;;;;;17.99;21.58;99823.16;6185300;23;20500;-90
2023/03/30 08:16:20;;;;;;;4.50;1.80;;;;;;;17.93;21.04;99820.94;6185170;23;20219;-91
2023/03/30 08:18:46;;;;;;;4.20;1.80;;;;;;;17.76;21.44;99815.06;6185033;23;20154;-90
2023/03/30 08:21:11;;;;;;;4.23;1.63;;;;;;;17.87;22.07;99813.44;6185208;23;20185;-92
2023/03/30 08:23:37;;;;;;;4.67;1.80;;;;;;;17.75;21.23;99812.50;6186037;23;20184;-91
2023/03/30 08:26:02;;;;;;;6.87;2.30;;;;;;;17.23;20.67;99819.72;6184902;23;20151;-90
2023/03/30 08:28:28;;;;;;;4.53;1.43;;;;;;;17.25;21.63;99813.34;6185101;23;20152;-90
2023/03/30 08:30:54;;;;;;;4.00;2.13;;;;;;;17.27;21.34;99808.78;6186096;23;20230;-90
2023/03/30 08:33:22;;;;;;;8.00;2.57;;;;;;;17.21;21.49;99798.63;6185162;23;20451;-90
2023/03/30 08:35:48;;;;;;;4.93;1.77;;;;;;;17.22;22.51;99800.31;6184877;23;20476;-89
2023/03/30 08:38:17;;;;;;;3.90;1.90;;;;;;;17.32;21.57;99804.00;6185885;23;20238;-89
2023/03/30 08:40:46;;;;;;;4.07;2.00;;;;;;;17.52;24.53;99800.84;6185957;23;20153;-90
2023/03/30 08:43:21;;;;;;;6.90;2.50;;;;;;;17.83;22.28;99785.41;6185765;23;20170;-89
2023/03/30 08:45:47;;;;;;;8.63;2.30;;;;;;;17.98;22.01;99789.63;6186247;23;20142;-90
2023/03/30 08:48:19;;;;;;;7.43;2.00;;;;;;;18.16;22.23;99780.34;6184750;23;20597;-90
2023/03/30 08:50:58;;;;;;;4.33;2.03;;;;;;;18.33;22.82;99777.28;6186459;23;20226;-90
2023/03/30 08:53:25;;;;;;;5.70;2.60;;;;;;;18.02;20.93;99776.03;6184630;23;20160;-89
2023/03/30 08:56:00;;;;;;;4.00;1.90;;;;;;;18.14;21.33;99766.31;6185765;23;20581;-89
2023/03/30 08:58:53;;;;;;;5.37;2.40;;;;;;;17.64;20.81;99768.19;6185691;23;20167;-90
2023/03/30 09:01:27;;;;;;;7.47;2.37;;;;;;;17.50;21.80;99770.94;6186087;23;20210;-89
2023/03/30 09:04:23;;;;;;;2.67;1.40;;;;;;;17.69;22.41;99767.84;6186002;23;20177;-89
2023/03/30 09:06:59;;;;;;;4.63;1.57;;;;;;;17.78;20.95;99765.41;6184536;23;20184;-91
2023/03/30 09:09:29;;;;;;;3.97;1.63;;;;;;;17.46;22.37;99758.84;6184388;23;20170;-91
2023/03/30 09:12:41;;;;;;;3.37;1.17;;;;;;;17.36;21.76;99757.81;6159967;23;20155;-91
2023/03/30 09:15:11;;;;;;;3.20;1.43;;;;;;;17.02;21.94;99748.72;6151250;23;20159;-91
2023/03/30 09:17:59;;;;;;;4.37;1.57;;;;;;;17.32;22.97;99747.53;6185863;23;20150;-92
2023/03/30 09:20:36;;;;;;;2.93;1.07;;;;;;;17.68;21.61;99742.31;6159651;23;20151;-89
2023/03/30 09:23:03;;;;;;;9.33;1.20;;;;;;;17.77;23.68;99726.56;6159607;23;20178;-91
2023/03/30 09:25:46;;;;;;;5.70;1.50;;;;;;;17.90;24.00;99720.38;6159695;23;20316;-89
2023/03/30 09:28:33;;;;;;;4.00;0.97;;;;;;;17.93;23.45;99714.84;6159522;23;20170;-89
2023/03/30 09:31:07;;;;;;;2.97;1.30;;;;;;;18.28;24.17;99715.72;6185825;23;20573;-89
2023/03/30 09:34:14;;;;;;;2.23;1.00;;;;;;;18.67;21.99;99704.78;6185930;23;20547;-89
2023/03/30 09:37:04;;;;;;;2.43;1.23;;;;;;;18.06;20.71;99699.69;6185496;23;20488;-89
2023/03/30 09:39:32;;;;;;;5.50;1.20;;;;;;;18.08;22.95;99703.94;6185854;23;20145;-87
2023/03/30 09:42:32;;;;;;;2.33;1.13;;;;;;;17.96;20.47;99706.66;6185616;23;20153;-90
2023/03/30 09:45:20;;;;;;;1.27;0.80;;;;;;;17.97;21.65;99703.06;6159450;23;20208;-91
2023/03/30 09:47:45;;;;;;;2.60;0.50;;;;;;;17.71;21.90;99697.00;6159450;23;20566;-94
2023/03/30 09:50:17;;;;;;;1.60;0.70;;;;;;;17.97;22.04;99695.09;6185328;23;20168;-91
2023/03/30 09:52:55;;;;;;;1.87;1.03;;;;;;;17.69;20.77;99697.09;6185457;23;20134;-90
2023/03/30 09:55:21;;;;;;;2.63;1.00;;;;;;;17.59;20.14;99695.22;6159472;23;20156;-90
2023/03/30 09:57:52;;;;;;;4.80;1.07;;;;;;;17.93;21.46;99690.97;6185887;23;20151;-91
2023/03/30 10:00:31;;;;;;;3.90;1.27;;;;;;;17.90;21.66;99699.16;6185345;23;20562;-91
2023/03/30 10:03:05;;;;;;;1.50;0.70;;;;;;;17.99;22.73;99693.16;6159304;23;20621;-90
2023/03/30 10:05:34;;;;;;;2.50;1.10;;;;;;;18.02;20.92;99680.53;6159477;23;20150;-90
2023/03/30 10:08:06;;;;;;;2.67;1.00;;;;;;;17.89;22.29;99684.22;6185510;23;20575;-90
2023/03/30 10:10:40;;;;;;;2.23;0.90;;;;;;;18.19;23.10;99682.75;6186846;23;20190;-92
2023/03/30 10:13:12;;;;;;;1.33;0.70;;;;;;;18.28;22.67;99667.97;6187581;23;20205;-91
2023/03/30 10:15:40;;;;;;;1.93;0.73;;;;;;;18.19;23.54;99671.28;6161366;23;20150;-91
2023/03/30 10:18:45;;;;;;;3.17;1.03;;;;;;;18.29;23.23;99678.44;6187817;23;20198;-90
2023/03/30 10:21:14;;;;;;;1.63;0.63;;;;;;;18.47;20.82;99660.34;6161262;23;20143;-91
2023/03/30 10:23:42;;;;;;;1.77;0.70;;;;;;;18.81;21.54;99667.38;6161015;23;20195;-91
2023/03/30 10:26:14;;;;;;;1.63;0.70;;;;;;;18.99;20.89;99650.00;6187116;23;20458;-91
2023/03/30 10:28:53;;;;;;;2.20;0.60;;;;;;;19.21;21.79;99653.63;6161056;23;20150;-91
2023/03/30 10:31:19;;;;;;;1.90;0.70;;;;;;;19.52;22.33;99647.56;6161052;23;20150;-91
2023/03/30 10:33:58;;;;;;;2.50;0.70;;;;;;;19.56;20.84;99643.66;6161013;23;20169;-90
2023/03/30 10:39:33;;;;;;;3.03;1.17;;;;;;;19.48;21.35;99635.47;6187400;23;20149;-91
2023/03/30 10:42:03;;;;;;;2.03;0.70;;;;;;;19.71;20.65;99641.56;6161016;23;20165;-92
2023/03/30 10:44:37;;;;;;;3.07;0.80;;;;;;;19.80;19.74;99639.00;6160943;23;20154;-89
2023/03/30 10:47:27;;;;;;;1.93;1.00;;;;;;;19.75;19.64;99633.22;6159187;23;20183;-90
2023/03/30 10:49:58;;;;;;;2.07;0.70;;;;;;;19.79;21.41;99639.97;6160845;23;20154;-89
2023/03/30 10:52:33;;;;;;;1.23;0.60;;;;;;;20.10;19.64;99635.59;6186790;23;20180;-89
2023/03/30 10:55:20;;;;;;;1.53;0.90;;;;;;;20.51;20.74;99627.66;6186809;23;20154;-89
2023/03/30 10:57:59;;;;;;;2.87;0.80;;;;;;;20.68;19.58;99612.88;6160777;23;20151;-87
2023/03/30 11:00:45;;;;;;;2.00;0.70;;;;;;;20.81;20.16;99616.16;6160753;23;20482;-89
2023/03/30 11:03:28;;;;;;;1.50;0.70;;;;;;;20.83;20.07;99614.22;6186931;23;20166;-87
2023/03/30 11:05:57;;;;;;;2.27;0.60;;;;;;;20.92;19.53;99602.75;6187364;23;20206;-87
2023/03/30 11:08:36;;;;;;;5.07;0.70;;;;;;;21.12;18.86;99607.19;6160552;23;20486;-87
2023/03/30 11:11:04;;;;;;;3.33;1.00;;;;;;;21.08;19.39;99608.47;6186814;23;20276;-87
2023/03/30 11:13:37;;;;;;;1.70;0.63;;;;;;;21.13;19.13;99602.72;6186485;23;20147;-87
2023/03/30 11:16:15;;;;;;;2.00;0.87;;;;;;;21.23;17.60;99604.44;6186943;23;20493;-87
2023/03/30 11:18:59;;;;;;;1.67;0.77;;;;;;;21.22;19.06;99597.44;6160680;23;20514;-88
2023/03/30 11:21:29;;;;;;;3.43;1.63;;;;;;;21.05;19.69;99600.69;6186520;23;20135;-87
2023/03/30 11:23:58;;;;;;;2.10;0.90;;;;;;;21.01;17.68;99601.13;6186894;23;20190;-88
2023/03/30 11:26:50;;;;;;;3.27;0.90;;;;;;;21.21;18.61;99601.06;6160431;23;20181;-88
2023/03/30 11:29:37;;;;;;;3.43;0.70;;;;;;;21.13;18.92;99597.38;6169764;23;20177;-87
2023/03/30 11:32:39;;;;;;;1.87;0.70;;;;;;;21.01;19.32;99593.13;6187136;23;20168;-87
2023/03/30 11:35:19;;;;;;;2.23;0.77;;;;;;;21.26;17.31;99582.84;6186709;23;20534;-87
2023/03/30 11:38:08;;;;;;;1.77;0.57;;;;;;;21.36;17.29;99573.03;6186320;23;20142;-88
2023/03/30 11:41:19;;;;;;;3.00;0.90;;;;;;;21.35;15.85;99565.16;6160104;23;20540;-88
2023/03/30 11:43:44;;;;;;;1.83;0.73;;;;;;;20.95;17.04;99562.50;6160244;23;20241;-87
2023/03/30 11:46:26;;;;;;;1.40;0.70;;;;;;;21.55;16.83;99550.88;6186220;23;20150;-88
2023/03/30 11:49:10;;;;;;;0.97;0.40;;;;;;;20.82;15.18;99557.44;6187106;23;20142;-88
2023/03/30 11:51:44;;;;;;;1.33;0.50;;;;;;;20.80;16.20;99554.06;6186657;23;20212;-88
2023/03/30 11:54:10;;;;;;;2.63;0.77;;;;;;;20.87;16.01;99554.34;6160248;23;20154;-88
2023/03/30 11:56:52;;;;;;;2.83;0.63;;;;;;;21.10;17.14;99547.00;6186819;23;20222;-87